Time;durP1;ratioP1;P1;durP2;ratioP2;P2;SDS_P1;SDS_P2;PMS_P1;PMS_P2;Temp;Humidity;BMP_temperature;BMP_pressure;BME280_temperature;BME280_humidity;BME280_pressure;Samples;Min_cycle;Max_cycle;Signal;HPM_P1;HPM_P2
2022/04/12 00:00:37;;;;;;;1.20;0.93;;;;;;;;;;5068328;28;20194;-67
2022/04/12 00:03:05;;;;;;;2.10;1.40;;;;;;;;;;5067539;28;20212;-66
2022/04/12 00:05:34;;;;;;;2.63;1.20;;;;;;;;;;5046051;28;20230;-66
2022/04/12 00:08:02;;;;;;;1.10;1.00;;;;;;;;;;5069549;28;20221;-66
2022/04/12 00:10:29;;;;;;;0.83;0.83;;;;;;;;;;5067718;28;20213;-66
2022/04/12 00:12:57;;;;;;;1.23;1.13;;;;;;;;;;5068865;28;20606;-66
2022/04/12 00:15:25;;;;;;;1.73;1.43;;;;;;;;;;5076884;28;20197;-66
2022/04/12 00:20:38;;;;;;;1.40;1.13;;;;;;;;;;5057817;28;20256;-66
2022/04/12 00:23:06;;;;;;;1.67;1.27;;;;;;;;;;5066134;28;20745;-66
2022/04/12 00:25:33;;;;;;;1.33;1.10;;;;;;;;;;5065081;28;20225;-66
2022/04/12 00:28:00;;;;;;;1.40;0.93;;;;;;;;;;5064525;28;20217;-66
2022/04/12 00:30:28;;;;;;;1.20;1.10;;;;;;;;;;5069629;28;20263;-67
2022/04/12 00:32:55;;;;;;;1.50;1.20;;;;;;;;;;5067687;28;20240;-66
2022/04/12 00:35:23;;;;;;;1.77;1.10;;;;;;;;;;5066901;28;20197;-67
2022/04/12 00:37:51;;;;;;;1.20;0.93;;;;;;;;;;5064074;28;20194;-67
2022/04/12 00:40:18;;;;;;;1.10;1.00;;;;;;;;;;5046629;28;20591;-66
2022/04/12 00:42:46;;;;;;;1.00;0.93;;;;;;;;;;5066652;28;20208;-66
2022/04/12 00:45:13;;;;;;;1.20;1.10;;;;;;;;;;5068527;28;20583;-67
2022/04/12 00:47:41;;;;;;;1.33;1.23;;;;;;;;;;5047625;28;20612;-66
2022/04/12 00:50:09;;;;;;;1.33;0.97;;;;;;;;;;5066797;28;20942;-66
2022/04/12 00:52:42;;;;;;;1.30;1.00;;;;;;;;;;5063574;28;20213;-66
2022/04/12 00:55:09;;;;;;;1.20;1.00;;;;;;;;;;5071747;28;20197;-67
2022/04/12 00:57:37;;;;;;;1.50;1.30;;;;;;;;;;5064755;28;20272;-66
2022/04/12 01:00:08;;;;;;;1.47;1.10;;;;;;;;;;5066516;28;20885;-66
2022/04/12 01:02:35;;;;;;;1.60;1.20;;;;;;;;;;5067392;28;20211;-68
2022/04/12 01:05:04;;;;;;;1.57;1.30;;;;;;;;;;5062500;28;20237;-67
2022/04/12 01:07:31;;;;;;;1.10;0.93;;;;;;;;;;5048013;28;20225;-67
2022/04/12 01:09:59;;;;;;;1.17;1.03;;;;;;;;;;5066326;28;20214;-67
2022/04/12 01:12:28;;;;;;;1.77;1.00;;;;;;;;;;5055311;28;20613;-66
2022/04/12 01:14:55;;;;;;;1.80;1.00;;;;;;;;;;5072689;28;20198;-67
2022/04/12 01:17:22;;;;;;;1.30;1.20;;;;;;;;;;5063244;28;20201;-66
2022/04/12 01:19:50;;;;;;;1.20;1.10;;;;;;;;;;5034474;28;21132;-67
2022/04/12 01:22:21;;;;;;;1.00;0.90;;;;;;;;;;5067190;28;20328;-67
2022/04/12 01:24:49;;;;;;;1.80;1.17;;;;;;;;;;5059674;28;20194;-66
2022/04/12 01:27:16;;;;;;;1.53;1.20;;;;;;;;;;5066706;28;20212;-67
2022/04/12 01:29:43;;;;;;;1.30;1.20;;;;;;;;;;5060460;28;20271;-66
2022/04/12 01:32:11;;;;;;;1.53;1.43;;;;;;;;;;5066786;28;20189;-67
2022/04/12 01:34:39;;;;;;;1.23;1.13;;;;;;;;;;5065337;28;20575;-67
2022/04/12 01:37:07;;;;;;;1.87;1.30;;;;;;;;;;5048535;28;20198;-68
2022/04/12 01:39:34;;;;;;;1.77;1.30;;;;;;;;;;5060630;28;20201;-66
2022/04/12 01:42:02;;;;;;;1.73;1.63;;;;;;;;;;5065711;28;20202;-67
2022/04/12 01:44:29;;;;;;;1.00;1.00;;;;;;;;;;5066877;28;20568;-66
2022/04/12 01:46:56;;;;;;;1.27;1.17;;;;;;;;;;5065814;28;20208;-66
2022/04/12 01:49:23;;;;;;;1.87;0.93;;;;;;;;;;5069140;28;20208;-66
2022/04/12 01:51:50;;;;;;;1.13;0.97;;;;;;;;;;5039001;28;20202;-66
2022/04/12 01:54:17;;;;;;;1.77;1.20;;;;;;;;;;5065832;28;20205;-67
2022/04/12 01:56:45;;;;;;;0.77;0.77;;;;;;;;;;5066400;28;20218;-66
2022/04/12 01:59:12;;;;;;;1.53;1.43;;;;;;;;;;5065501;28;20611;-67
2022/04/12 02:01:39;;;;;;;1.40;1.00;;;;;;;;;;5063808;28;20189;-66
2022/04/12 02:04:07;;;;;;;1.60;1.20;;;;;;;;;;5061396;28;20240;-66
2022/04/12 02:06:34;;;;;;;1.37;1.20;;;;;;;;;;5066089;28;20182;-66
2022/04/12 02:09:02;;;;;;;1.33;1.00;;;;;;;;;;5066038;28;20224;-67
2022/04/12 02:11:29;;;;;;;1.00;0.87;;;;;;;;;;5068797;28;20880;-66
2022/04/12 02:13:56;;;;;;;1.33;1.20;;;;;;;;;;5065983;28;20201;-65
2022/04/12 02:16:23;;;;;;;1.43;1.33;;;;;;;;;;5073374;28;20201;-66
2022/04/12 02:18:50;;;;;;;1.80;1.20;;;;;;;;;;5047562;28;20221;-67
2022/04/12 02:21:17;;;;;;;1.23;1.13;;;;;;;;;;5050295;28;20212;-66
2022/04/12 02:23:44;;;;;;;1.50;1.33;;;;;;;;;;5068482;28;20201;-66
2022/04/12 02:26:12;;;;;;;1.20;0.90;;;;;;;;;;5078458;28;20209;-67
2022/04/12 02:28:39;;;;;;;1.27;0.90;;;;;;;;;;5068624;28;20451;-66
2022/04/12 02:31:06;;;;;;;1.20;1.10;;;;;;;;;;5072543;28;20294;-67
2022/04/12 02:33:34;;;;;;;1.20;1.10;;;;;;;;;;5053264;28;20200;-65
2022/04/12 02:36:01;;;;;;;1.20;1.10;;;;;;;;;;5053628;28;20271;-67
2022/04/12 02:38:28;;;;;;;1.20;1.07;;;;;;;;;;5071628;28;20561;-67
2022/04/12 02:40:55;;;;;;;2.17;1.20;;;;;;;;;;5068336;28;20209;-67
2022/04/12 02:43:23;;;;;;;1.43;1.33;;;;;;;;;;5072685;28;20213;-67
2022/04/12 02:45:50;;;;;;;1.47;1.23;;;;;;;;;;5068122;28;20799;-66
2022/04/12 02:48:18;;;;;;;1.60;0.97;;;;;;;;;;5069308;28;20220;-67
2022/04/12 02:50:45;;;;;;;1.77;1.47;;;;;;;;;;5068926;28;20210;-67
2022/04/12 02:53:12;;;;;;;1.93;1.60;;;;;;;;;;5054038;28;20715;-67
2022/04/12 02:55:39;;;;;;;1.57;1.30;;;;;;;;;;5073934;28;20246;-66
2022/04/12 02:58:06;;;;;;;1.93;1.80;;;;;;;;;;5072315;28;20186;-68
2022/04/12 03:00:34;;;;;;;1.83;1.43;;;;;;;;;;5070691;28;20239;-67
2022/04/12 03:03:01;;;;;;;2.27;1.60;;;;;;;;;;5071668;28;20205;-67
2022/04/12 03:05:28;;;;;;;2.20;1.80;;;;;;;;;;5049306;28;20240;-67
2022/04/12 03:07:55;;;;;;;2.00;1.73;;;;;;;;;;5072235;28;20255;-67
2022/04/12 03:10:23;;;;;;;1.60;1.40;;;;;;;;;;5075010;28;20217;-67
2022/04/12 03:12:50;;;;;;;2.13;1.70;;;;;;;;;;5071655;28;20197;-68
2022/04/12 03:15:18;;;;;;;1.87;1.47;;;;;;;;;;5073811;28;20629;-67
2022/04/12 03:17:46;;;;;;;2.13;1.53;;;;;;;;;;5075152;28;20602;-68
2022/04/12 03:20:13;;;;;;;1.50;1.40;;;;;;;;;;5054057;28;20194;-67
2022/04/12 03:22:42;;;;;;;1.63;1.20;;;;;;;;;;5071633;28;20196;-66
2022/04/12 03:25:10;;;;;;;1.53;1.30;;;;;;;;;;5052605;28;20202;-66
2022/04/12 03:27:37;;;;;;;1.50;1.30;;;;;;;;;;5064612;28;20418;-66
2022/04/12 03:30:05;;;;;;;1.33;1.10;;;;;;;;;;5068571;28;20263;-67
2022/04/12 03:32:32;;;;;;;1.70;1.37;;;;;;;;;;5077238;28;20201;-66
2022/04/12 03:34:59;;;;;;;1.50;1.40;;;;;;;;;;5068374;28;20193;-67
2022/04/12 03:37:26;;;;;;;1.53;1.30;;;;;;;;;;5073231;28;20274;-67
2022/04/12 03:39:55;;;;;;;1.37;1.27;;;;;;;;;;5062302;28;20205;-68
2022/04/12 03:42:22;;;;;;;2.57;1.60;;;;;;;;;;5067803;28;20342;-67
2022/04/12 03:44:49;;;;;;;2.67;1.87;;;;;;;;;;5069261;28;20213;-67
2022/04/12 03:47:17;;;;;;;1.73;1.40;;;;;;;;;;5076083;28;20855;-67
2022/04/12 03:49:44;;;;;;;1.17;1.07;;;;;;;;;;5066218;28;20206;-67
2022/04/12 03:52:11;;;;;;;1.30;1.10;;;;;;;;;;5063957;28;20214;-66
2022/04/12 03:54:38;;;;;;;1.57;1.20;;;;;;;;;;5068891;28;20186;-67
2022/04/12 03:57:06;;;;;;;1.17;1.07;;;;;;;;;;5067220;28;20251;-67
2022/04/12 03:59:34;;;;;;;1.47;1.07;;;;;;;;;;5065128;28;20197;-67
2022/04/12 04:02:08;;;;;;;1.50;1.20;;;;;;;;;;5070128;28;20635;-67
2022/04/12 04:04:38;;;;;;;1.20;1.10;;;;;;;;;;5063878;28;20234;-67
2022/04/12 04:07:08;;;;;;;2.03;1.40;;;;;;;;;;5067976;28;20291;-67
2022/04/12 04:09:50;;;;;;;4.67;1.30;;;;;;;;;;5062993;28;20274;-67
2022/04/12 04:12:17;;;;;;;1.40;0.90;;;;;;;;;;5051294;28;20276;-66
2022/04/12 04:14:46;;;;;;;1.50;1.40;;;;;;;;;;5068192;28;20337;-66
2022/04/12 04:17:13;;;;;;;1.23;0.97;;;;;;;;;;5068694;28;20218;-67
2022/04/12 04:19:40;;;;;;;2.83;1.47;;;;;;;;;;5064758;28;20670;-67
2022/04/12 04:22:08;;;;;;;2.60;1.20;;;;;;;;;;5050307;28;20632;-66
2022/04/12 04:24:35;;;;;;;1.63;1.30;;;;;;;;;;5066926;28;20193;-67
2022/04/12 04:27:05;;;;;;;1.50;1.20;;;;;;;;;;5047456;28;20205;-67
2022/04/12 04:29:35;;;;;;;1.20;1.10;;;;;;;;;;5045197;28;20282;-66
2022/04/12 04:32:02;;;;;;;1.40;1.10;;;;;;;;;;5069647;28;20255;-66
2022/04/12 04:34:29;;;;;;;1.57;1.07;;;;;;;;;;5040703;28;20215;-66
2022/04/12 04:36:58;;;;;;;1.70;1.00;;;;;;;;;;5079595;28;20193;-66
2022/04/12 04:39:30;;;;;;;3.13;1.33;;;;;;;;;;5069864;28;20190;-66
2022/04/12 04:41:58;;;;;;;1.00;1.00;;;;;;;;;;5065469;28;20266;-67
2022/04/12 04:44:27;;;;;;;1.80;1.17;;;;;;;;;;5064517;28;20738;-66
2022/04/12 04:46:59;;;;;;;1.60;1.00;;;;;;;;;;5073834;28;20205;-65
2022/04/12 04:49:26;;;;;;;1.63;1.50;;;;;;;;;;5049560;28;20600;-65
2022/04/12 04:51:55;;;;;;;1.20;1.10;;;;;;;;;;5066969;28;20799;-66
2022/04/12 04:54:26;;;;;;;2.23;1.10;;;;;;;;;;5066737;28;20202;-67
2022/04/12 04:56:56;;;;;;;1.27;1.00;;;;;;;;;;5048136;28;20198;-66
2022/04/12 04:59:23;;;;;;;1.87;1.20;;;;;;;;;;5065477;28;20197;-65
2022/04/12 05:01:54;;;;;;;1.90;1.17;;;;;;;;;;5063374;28;20205;-65
2022/04/12 05:04:21;;;;;;;1.10;1.00;;;;;;;;;;5044471;28;20237;-66
2022/04/12 05:06:48;;;;;;;1.33;1.10;;;;;;;;;;5066392;28;20603;-66
2022/04/12 05:09:21;;;;;;;1.67;1.23;;;;;;;;;;5054057;28;20447;-65
2022/04/12 05:11:52;;;;;;;1.30;1.03;;;;;;;;;;5061788;28;20212;-64
2022/04/12 05:14:25;;;;;;;1.50;1.30;;;;;;;;;;5065715;28;20228;-66
2022/04/12 05:16:54;;;;;;;1.47;1.37;;;;;;;;;;5059518;28;20228;-67
2022/04/12 05:19:24;;;;;;;1.53;0.97;;;;;;;;;;5063382;28;20204;-66
2022/04/12 05:21:54;;;;;;;1.20;1.10;;;;;;;;;;5066345;28;20189;-67
2022/04/12 05:24:21;;;;;;;1.23;1.00;;;;;;;;;;5066283;28;20201;-66
2022/04/12 05:26:48;;;;;;;1.47;1.37;;;;;;;;;;5068591;28;20250;-66
2022/04/12 05:29:16;;;;;;;1.53;1.40;;;;;;;;;;5062891;28;20214;-66
2022/04/12 05:31:43;;;;;;;1.77;1.33;;;;;;;;;;5063280;28;20221;-66
2022/04/12 05:34:11;;;;;;;1.70;1.27;;;;;;;;;;5047946;28;20259;-66
2022/04/12 05:36:39;;;;;;;1.30;1.20;;;;;;;;;;5066360;28;20684;-66
2022/04/12 05:39:12;;;;;;;1.40;1.00;;;;;;;;;;5049180;28;20528;-66
2022/04/12 05:41:41;;;;;;;1.70;1.60;;;;;;;;;;5061151;28;20308;-66
2022/04/12 05:44:11;;;;;;;1.53;1.23;;;;;;;;;;5032760;28;20317;-66
2022/04/12 05:46:43;;;;;;;2.73;1.60;;;;;;;;;;5064097;28;20202;-65
2022/04/12 05:49:13;;;;;;;1.90;1.40;;;;;;;;;;5043088;28;20255;-65
2022/04/12 05:51:42;;;;;;;1.30;1.10;;;;;;;;;;5058749;28;20205;-64
2022/04/12 05:54:13;;;;;;;1.40;1.30;;;;;;;;;;5051230;28;20681;-65
2022/04/12 05:56:42;;;;;;;1.80;1.33;;;;;;;;;;5044160;28;20231;-64
2022/04/12 05:59:09;;;;;;;1.63;1.40;;;;;;;;;;5065128;28;20197;-65
2022/04/12 06:01:42;;;;;;;2.30;1.53;;;;;;;;;;5064604;28;20194;-66
2022/04/12 06:04:10;;;;;;;3.27;1.70;;;;;;;;;;5044458;28;20233;-66
2022/04/12 06:06:41;;;;;;;2.03;1.83;;;;;;;;;;5055858;28;20202;-64
2022/04/12 06:09:09;;;;;;;2.50;1.50;;;;;;;;;;5064233;28;20228;-65
2022/04/12 06:11:38;;;;;;;2.37;1.43;;;;;;;;;;5053499;28;20213;-67
2022/04/12 06:14:07;;;;;;;2.37;2.00;;;;;;;;;;5061500;28;20233;-67
2022/04/12 06:16:34;;;;;;;6.87;1.83;;;;;;;;;;5061355;28;20725;-64
2022/04/12 06:19:03;;;;;;;3.53;2.03;;;;;;;;;;5072112;28;20673;-64
2022/04/12 06:21:36;;;;;;;2.40;2.00;;;;;;;;;;5061773;28;20225;-65
2022/04/12 06:24:14;;;;;;;3.47;2.00;;;;;;;;;;5063219;28;20289;-65
2022/04/12 06:26:44;;;;;;;3.27;2.50;;;;;;;;;;5062922;28;20205;-64
2022/04/12 06:29:17;;;;;;;2.47;1.80;;;;;;;;;;5058479;28;20209;-65
2022/04/12 06:31:46;;;;;;;3.00;2.07;;;;;;;;;;5061505;28;20257;-64
2022/04/12 06:34:15;;;;;;;2.87;1.90;;;;;;;;;;5060515;28;20239;-64
2022/04/12 06:36:42;;;;;;;3.03;2.10;;;;;;;;;;5044148;28;20196;-63
2022/04/12 06:39:12;;;;;;;2.10;1.80;;;;;;;;;;5057868;28;20197;-63
2022/04/12 06:41:42;;;;;;;3.17;2.10;;;;;;;;;;5059296;28;20674;-65
2022/04/12 06:44:12;;;;;;;2.90;2.10;;;;;;;;;;5066456;28;20190;-64
2022/04/12 06:46:39;;;;;;;3.07;2.57;;;;;;;;;;5064222;28;20568;-65
2022/04/12 06:49:06;;;;;;;2.13;1.90;;;;;;;;;;5064590;28;20239;-65
2022/04/12 06:51:33;;;;;;;2.27;1.93;;;;;;;;;;5063849;28;20601;-64
2022/04/12 06:54:03;;;;;;;7.28;2.90;;;;;;;;;;5038287;28;20428;-65
2022/04/12 06:56:37;;;;;;;27.37;6.90;;;;;;;;;;5062886;28;20205;-66
2022/04/12 06:59:04;;;;;;;35.60;8.80;;;;;;;;;;5063695;28;20667;-65
2022/04/12 07:01:31;;;;;;;26.23;7.13;;;;;;;;;;5066029;28;20193;-65
2022/04/12 07:03:58;;;;;;;20.90;6.87;;;;;;;;;;5045821;28;20237;-65
2022/04/12 07:06:26;;;;;;;22.97;7.17;;;;;;;;;;5067776;28;20190;-64
2022/04/12 07:08:53;;;;;;;23.03;6.97;;;;;;;;;;5067775;28;20186;-65
2022/04/12 07:11:20;;;;;;;17.60;5.50;;;;;;;;;;5068111;28;20205;-65
2022/04/12 07:13:47;;;;;;;19.50;5.33;;;;;;;;;;5065073;28;20197;-65
2022/04/12 07:16:14;;;;;;;15.23;5.40;;;;;;;;;;5069661;28;20213;-64
2022/04/12 07:18:42;;;;;;;15.27;5.43;;;;;;;;;;5028444;28;20701;-65
2022/04/12 07:21:09;;;;;;;12.77;4.70;;;;;;;;;;5067516;28;20194;-64
2022/04/12 07:23:37;;;;;;;14.87;4.63;;;;;;;;;;5048996;28;20190;-64
2022/04/12 07:26:04;;;;;;;11.60;4.20;;;;;;;;;;5065669;28;20693;-66
2022/04/12 07:28:32;;;;;;;10.80;4.50;;;;;;;;;;5063146;28;20262;-66
2022/04/12 07:31:00;;;;;;;11.27;4.23;;;;;;;;;;5071235;28;20251;-64
2022/04/12 07:33:30;;;;;;;7.87;3.70;;;;;;;;;;5073451;28;20208;-64
2022/04/12 07:35:59;;;;;;;8.77;3.40;;;;;;;;;;5067210;28;20260;-64
2022/04/12 07:38:30;;;;;;;15.13;4.00;;;;;;;;;;5063157;28;20218;-65
2022/04/12 07:41:00;;;;;;;10.97;3.50;;;;;;;;;;5064499;28;20217;-65
2022/04/12 07:43:29;;;;;;;11.43;3.50;;;;;;;;;;5066948;28;20524;-63
2022/04/12 07:45:57;;;;;;;7.67;3.00;;;;;;;;;;5063295;28;20189;-66
2022/04/12 07:48:47;;;;;;;4.73;2.90;;;;;;;;;;5069684;28;20190;-65
2022/04/12 07:51:19;;;;;;;6.30;2.63;;;;;;;;;;5050988;28;20313;-64
2022/04/12 07:53:52;;;;;;;6.87;2.80;;;;;;;;;;5048700;28;20625;-65
2022/04/12 07:56:28;;;;;;;4.33;2.77;;;;;;;;;;5057632;28;20181;-65
2022/04/12 07:58:55;;;;;;;3.40;2.07;;;;;;;;;;5065774;28;20232;-66
2022/04/12 08:01:23;;;;;;;3.57;2.40;;;;;;;;;;5067542;28;20202;-66
2022/04/12 08:03:50;;;;;;;6.77;2.40;;;;;;;;;;5059103;28;20229;-66
2022/04/12 08:06:17;;;;;;;3.30;2.20;;;;;;;;;;5066900;28;20276;-64
2022/04/12 08:08:46;;;;;;;3.87;2.43;;;;;;;;;;5070497;28;20252;-64
2022/04/12 08:11:14;;;;;;;4.87;1.73;;;;;;;;;;5067722;28;20292;-65
2022/04/12 08:13:47;;;;;;;3.43;2.30;;;;;;;;;;5063361;28;20596;-66
2022/04/12 08:16:16;;;;;;;4.93;1.97;;;;;;;;;;5063114;28;20237;-64
2022/04/12 08:18:48;;;;;;;3.60;2.30;;;;;;;;;;5048265;28;20507;-65
2022/04/12 08:21:36;;;;;;;4.67;1.90;;;;;;;;;;5049932;28;20296;-64
2022/04/12 08:24:14;;;;;;;4.97;1.93;;;;;;;;;;5069800;28;20216;-64
2022/04/12 08:26:41;;;;;;;3.73;1.80;;;;;;;;;;5076898;28;20729;-64
2022/04/12 08:29:09;;;;;;;4.70;1.90;;;;;;;;;;5071178;28;20219;-65
2022/04/12 08:31:36;;;;;;;2.47;1.60;;;;;;;;;;5075144;28;20552;-65
2022/04/12 08:34:03;;;;;;;3.03;2.00;;;;;;;;;;5078152;28;20693;-64
2022/04/12 08:36:30;;;;;;;2.33;1.60;;;;;;;;;;5079153;28;20181;-64
2022/04/12 08:38:58;;;;;;;3.40;1.63;;;;;;;;;;5074483;28;20879;-66
2022/04/12 08:41:26;;;;;;;6.03;2.10;;;;;;;;;;5069130;28;20217;-67
2022/04/12 08:44:00;;;;;;;4.43;1.93;;;;;;;;;;5066535;28;20206;-65
2022/04/12 08:46:29;;;;;;;2.53;1.63;;;;;;;;;;5047676;28;20636;-66
2022/04/12 08:49:05;;;;;;;3.30;1.77;;;;;;;;;;5064248;28;20197;-66
2022/04/12 08:51:32;;;;;;;2.83;1.67;;;;;;;;;;5068897;28;20247;-64
2022/04/12 08:54:01;;;;;;;1.97;1.60;;;;;;;;;;5076194;28;20233;-63
2022/04/12 08:56:40;;;;;;;2.37;1.60;;;;;;;;;;5076476;28;20764;-63
2022/04/12 08:59:10;;;;;;;3.37;1.37;;;;;;;;;;5056296;28;20200;-62
2022/04/12 09:01:43;;;;;;;4.50;2.00;;;;;;;;;;5051015;28;20205;-64
2022/04/12 09:04:14;;;;;;;4.67;1.60;;;;;;;;;;5062844;28;20718;-63
2022/04/12 09:06:48;;;;;;;4.90;1.80;;;;;;;;;;5067860;28;20194;-63
2022/04/12 09:09:19;;;;;;;1.93;1.27;;;;;;;;;;5066439;28;20258;-65
2022/04/12 09:12:06;;;;;;;2.60;1.53;;;;;;;;;;5071948;28;20606;-63
2022/04/12 09:14:36;;;;;;;3.20;1.63;;;;;;;;;;5058316;28;20220;-64
2022/04/12 09:17:08;;;;;;;2.43;1.40;;;;;;;;;;5057016;28;20275;-65
2022/04/12 09:19:44;;;;;;;6.30;1.50;;;;;;;;;;5038038;28;20190;-66
2022/04/12 09:22:14;;;;;;;3.03;1.30;;;;;;;;;;5065089;28;20213;-67
2022/04/12 09:24:45;;;;;;;2.47;1.37;;;;;;;;;;5035165;28;20197;-65
2022/04/12 09:27:13;;;;;;;2.13;1.27;;;;;;;;;;5047954;28;20197;-65
2022/04/12 09:29:51;;;;;;;1.83;1.30;;;;;;;;;;5044019;28;20229;-66
2022/04/12 09:32:20;;;;;;;3.23;1.47;;;;;;;;;;5066060;28;20232;-64
2022/04/12 09:34:47;;;;;;;1.67;1.13;;;;;;;;;;5063071;28;20206;-64
2022/04/12 09:37:28;;;;;;;3.70;1.97;;;;;;;;;;5065411;28;20189;-64
2022/04/12 09:40:01;;;;;;;2.77;1.30;;;;;;;;;;5058685;28;20217;-66
2022/04/12 09:43:00;;;;;;;1.97;1.40;;;;;;;;;;5066091;28;20205;-66
2022/04/12 09:45:33;;;;;;;2.20;1.40;;;;;;;;;;5055139;28;20698;-65
2022/04/12 09:48:08;;;;;;;3.17;1.30;;;;;;;;;;5064653;28;20200;-64
2022/04/12 09:51:00;;;;;;;1.97;1.23;;;;;;;;;;5063066;28;20198;-63
2022/04/12 09:53:40;;;;;;;2.37;1.30;;;;;;;;;;5061064;28;20213;-61
2022/04/12 09:56:24;;;;;;;1.23;0.90;;;;;;;;;;5067042;28;20750;-63
2022/04/12 09:59:07;;;;;;;4.77;1.43;;;;;;;;;;5060098;28;20204;-62
2022/04/12 10:01:39;;;;;;;2.80;1.37;;;;;;;;;;5052775;28;20191;-63
2022/04/12 10:04:10;;;;;;;2.07;1.40;;;;;;;;;;5062773;28;20578;-69
2022/04/12 10:06:40;;;;;;;2.33;1.50;;;;;;;;;;5063431;28;20221;-68
2022/04/12 10:09:08;;;;;;;4.40;1.17;;;;;;;;;;5063135;28;20197;-65
2022/04/12 10:11:43;;;;;;;1.47;1.20;;;;;;;;;;5062212;28;20209;-69
2022/04/12 10:14:15;;;;;;;1.80;1.30;;;;;;;;;;5063967;28;20268;-68
2022/04/12 10:16:47;;;;;;;2.00;1.10;;;;;;;;;;5044887;28;20983;-68
2022/04/12 10:19:15;;;;;;;1.73;1.33;;;;;;;;;;5043440;28;20204;-68
2022/04/12 10:21:42;;;;;;;1.97;1.67;;;;;;;;;;5043815;28;20214;-67
2022/04/12 10:24:10;;;;;;;1.97;1.33;;;;;;;;;;5063679;28;20227;-69
2022/04/12 10:26:38;;;;;;;2.17;1.30;;;;;;;;;;5059082;28;20190;-68
2022/04/12 10:29:13;;;;;;;1.70;1.10;;;;;;;;;;5060249;28;20304;-69
2022/04/12 10:31:56;;;;;;;2.13;1.13;;;;;;;;;;5066153;28;20213;-68
2022/04/12 10:34:59;;;;;;;1.60;1.13;;;;;;;;;;5044498;28;20247;-68
2022/04/12 10:37:26;;;;;;;3.37;1.17;;;;;;;;;;5061539;28;20247;-69
2022/04/12 10:40:13;;;;;;;1.70;1.10;;;;;;;;;;5062628;28;20489;-69
2022/04/12 10:42:41;;;;;;;2.97;1.20;;;;;;;;;;5064712;28;20232;-68
2022/04/12 10:45:11;;;;;;;2.00;1.40;;;;;;;;;;5065523;28;20205;-69
2022/04/12 10:47:42;;;;;;;1.73;1.27;;;;;;;;;;5046283;28;20232;-69
2022/04/12 10:50:11;;;;;;;1.47;1.10;;;;;;;;;;5065339;28;20283;-67
2022/04/12 10:52:43;;;;;;;2.50;1.57;;;;;;;;;;5060178;28;20244;-68
2022/04/12 10:55:12;;;;;;;1.33;0.97;;;;;;;;;;5067977;28;20642;-68
2022/04/12 10:57:41;;;;;;;2.47;1.57;;;;;;;;;;5064438;28;20198;-69
2022/04/12 11:00:10;;;;;;;2.28;1.27;;;;;;;;;;5064016;28;20442;-65
2022/04/12 11:02:42;;;;;;;1.67;1.10;;;;;;;;;;5071598;28;20197;-66
2022/04/12 11:05:29;;;;;;;3.57;1.20;;;;;;;;;;5052119;28;20837;-65
2022/04/12 11:07:56;;;;;;;1.47;1.10;;;;;;;;;;5066540;28;20197;-65
2022/04/12 11:10:24;;;;;;;3.80;1.30;;;;;;;;;;5058488;28;20185;-66
2022/04/12 11:13:03;;;;;;;4.83;1.20;;;;;;;;;;5059940;28;20232;-65
2022/04/12 11:15:31;;;;;;;3.43;1.27;;;;;;;;;;5047452;28;20240;-62
2022/04/12 11:18:15;;;;;;;1.40;1.20;;;;;;;;;;5065597;28;20737;-63
2022/04/12 11:20:46;;;;;;;1.60;0.97;;;;;;;;;;5034275;28;20198;-65
2022/04/12 11:23:14;;;;;;;2.00;1.00;;;;;;;;;;5062925;28;20209;-64
2022/04/12 11:25:45;;;;;;;3.03;1.10;;;;;;;;;;5047786;28;20823;-63
2022/04/12 11:28:15;;;;;;;1.90;1.10;;;;;;;;;;5059974;28;20201;-63
2022/04/12 11:30:52;;;;;;;2.17;1.03;;;;;;;;;;5060291;28;20540;-63
2022/04/12 11:33:19;;;;;;;6.17;1.20;;;;;;;;;;5067480;28;20245;-66
2022/04/12 11:35:47;;;;;;;2.70;1.10;;;;;;;;;;5027806;28;20216;-64
2022/04/12 11:38:14;;;;;;;2.57;1.20;;;;;;;;;;5059876;28;20190;-64
2022/04/12 11:40:45;;;;;;;2.97;1.40;;;;;;;;;;5067770;28;20190;-65
2022/04/12 11:43:23;;;;;;;2.13;1.20;;;;;;;;;;5063144;28;20202;-65
2022/04/12 11:45:54;;;;;;;2.20;1.10;;;;;;;;;;5045397;28;20497;-65
2022/04/12 11:48:22;;;;;;;2.90;1.30;;;;;;;;;;5061227;28;20194;-65
2022/04/12 11:50:49;;;;;;;1.60;1.20;;;;;;;;;;5067649;28;20334;-64
2022/04/12 11:53:24;;;;;;;2.20;1.03;;;;;;;;;;5073641;28;20720;-64
2022/04/12 11:55:51;;;;;;;1.57;1.10;;;;;;;;;;5066552;28;20271;-64
2022/04/12 11:58:21;;;;;;;1.43;0.90;;;;;;;;;;5051564;28;20233;-65
2022/04/12 12:00:50;;;;;;;1.47;1.13;;;;;;;;;;5054146;28;20186;-62
2022/04/12 12:03:17;;;;;;;1.83;1.10;;;;;;;;;;5067978;28;20263;-64
2022/04/12 12:05:46;;;;;;;1.27;0.90;;;;;;;;;;5062300;28;20259;-65
2022/04/12 12:08:19;;;;;;;1.53;1.00;;;;;;;;;;5048752;28;20205;-67
2022/04/12 12:10:46;;;;;;;5.33;1.23;;;;;;;;;;5065723;28;20213;-65
2022/04/12 12:13:16;;;;;;;4.63;1.17;;;;;;;;;;5063348;28;20214;-66
2022/04/12 12:15:47;;;;;;;4.80;1.50;;;;;;;;;;5046487;28;20292;-63
2022/04/12 12:18:18;;;;;;;2.80;1.10;;;;;;;;;;5064025;28;20749;-63
2022/04/12 12:20:46;;;;;;;3.53;1.20;;;;;;;;;;5037474;28;20315;-65
2022/04/12 12:23:14;;;;;;;1.67;0.97;;;;;;;;;;5076034;28;20200;-64
2022/04/12 12:25:42;;;;;;;2.23;1.10;;;;;;;;;;5065562;28;20252;-65
2022/04/12 12:28:20;;;;;;;4.07;1.00;;;;;;;;;;5078134;28;20766;-65
2022/04/12 12:30:49;;;;;;;3.77;1.30;;;;;;;;;;5040539;28;20306;-67
2022/04/12 12:33:16;;;;;;;1.30;1.20;;;;;;;;;;5058464;28;20669;-66
2022/04/12 12:35:47;;;;;;;2.57;1.60;;;;;;;;;;5057521;28;20200;-66
2022/04/12 12:38:16;;;;;;;2.57;1.33;;;;;;;;;;5074601;28;20204;-66
2022/04/12 12:40:49;;;;;;;1.87;1.13;;;;;;;;;;5052370;28;20209;-64
2022/04/12 12:43:21;;;;;;;3.70;1.10;;;;;;;;;;5070140;28;20209;-64
2022/04/12 12:45:53;;;;;;;0.97;0.83;;;;;;;;;;5074147;28;20289;-66
2022/04/12 12:48:26;;;;;;;3.13;1.60;;;;;;;;;;5076755;28;20205;-64
2022/04/12 12:50:58;;;;;;;1.37;1.03;;;;;;;;;;5039246;28;20883;-63
2022/04/12 12:53:28;;;;;;;2.03;1.20;;;;;;;;;;5075156;28;20221;-66
2022/04/12 12:55:58;;;;;;;2.03;1.10;;;;;;;;;;5072179;28;20214;-65
2022/04/12 12:58:29;;;;;;;3.07;1.20;;;;;;;;;;5075675;28;20185;-64
2022/04/12 13:01:03;;;;;;;4.53;1.40;;;;;;;;;;5070223;28;20186;-68
2022/04/12 13:03:31;;;;;;;2.10;1.20;;;;;;;;;;5064686;28;20201;-68
2022/04/12 13:05:59;;;;;;;1.60;1.20;;;;;;;;;;5061381;28;20210;-66
2022/04/12 13:08:32;;;;;;;1.90;1.20;;;;;;;;;;5051021;28;20224;-65
2022/04/12 13:11:00;;;;;;;3.07;1.30;;;;;;;;;;5075807;28;20206;-65
2022/04/12 13:13:27;;;;;;;1.63;1.17;;;;;;;;;;5066208;28;20210;-65
2022/04/12 13:15:55;;;;;;;3.27;1.30;;;;;;;;;;5046213;28;20208;-64
2022/04/12 13:18:24;;;;;;;2.60;1.30;;;;;;;;;;5043943;28;20209;-66
2022/04/12 13:20:51;;;;;;;2.67;1.57;;;;;;;;;;5068358;28;20239;-67
2022/04/12 13:23:18;;;;;;;5.33;1.70;;;;;;;;;;5066185;28;20197;-65
2022/04/12 13:25:45;;;;;;;3.07;1.30;;;;;;;;;;5049595;28;20615;-66
2022/04/12 13:28:14;;;;;;;6.50;1.40;;;;;;;;;;5065250;28;20243;-65
2022/04/12 13:30:43;;;;;;;2.33;1.33;;;;;;;;;;5059781;28;20221;-64
2022/04/12 13:33:10;;;;;;;2.07;1.20;;;;;;;;;;5044315;28;20853;-64
2022/04/12 13:35:38;;;;;;;2.80;1.13;;;;;;;;;;5058809;28;20190;-67
2022/04/12 13:38:05;;;;;;;2.03;1.27;;;;;;;;;;5064170;28;20197;-66
2022/04/12 13:40:32;;;;;;;3.47;1.63;;;;;;;;;;5061658;28;20212;-67
2022/04/12 13:43:03;;;;;;;2.57;1.20;;;;;;;;;;5043012;28;20217;-67
2022/04/12 13:45:34;;;;;;;2.90;1.47;;;;;;;;;;5063417;28;20201;-65
2022/04/12 13:48:01;;;;;;;4.30;1.43;;;;;;;;;;5061513;28;20198;-65
2022/04/12 13:50:28;;;;;;;3.50;1.70;;;;;;;;;;5064787;28;20213;-65
2022/04/12 13:53:01;;;;;;;1.73;1.30;;;;;;;;;;5044312;28;20225;-66
2022/04/12 13:55:31;;;;;;;2.07;1.50;;;;;;;;;;5057308;28;20598;-65
2022/04/12 13:58:00;;;;;;;1.93;1.20;;;;;;;;;;5061696;28;20474;-64
2022/04/12 14:00:29;;;;;;;2.87;1.60;;;;;;;;;;5062171;28;20550;-68
2022/04/12 14:02:57;;;;;;;5.20;2.07;;;;;;;;;;5054188;28;20205;-68
2022/04/12 14:05:24;;;;;;;1.67;1.57;;;;;;;;;;5064448;28;20309;-70
2022/04/12 14:07:52;;;;;;;2.23;1.73;;;;;;;;;;5060927;28;20453;-70
2022/04/12 14:10:20;;;;;;;2.30;1.73;;;;;;;;;;5060943;28;20198;-68
2022/04/12 14:12:47;;;;;;;4.03;1.83;;;;;;;;;;5049680;28;20618;-70
2022/04/12 14:15:14;;;;;;;2.47;2.00;;;;;;;;;;5064826;28;20255;-69
2022/04/12 14:17:41;;;;;;;2.43;1.90;;;;;;;;;;5057239;28;20526;-68
2022/04/12 14:20:28;;;;;;;4.13;2.07;;;;;;;;;;5057950;28;20200;-69
2022/04/12 14:22:55;;;;;;;1.60;1.50;;;;;;;;;;5065229;28;20209;-68
2022/04/12 14:25:25;;;;;;;4.30;1.83;;;;;;;;;;5064221;28;20193;-69
2022/04/12 14:27:55;;;;;;;2.90;2.07;;;;;;;;;;5058950;28;20190;-69
2022/04/12 14:30:24;;;;;;;2.73;2.03;;;;;;;;;;5060385;28;20355;-69
2022/04/12 14:32:56;;;;;;;2.77;1.60;;;;;;;;;;5065220;28;20255;-68
2022/04/12 14:35:23;;;;;;;2.87;2.00;;;;;;;;;;5063957;28;20209;-69
2022/04/12 14:37:50;;;;;;;3.67;1.73;;;;;;;;;;5054758;28;20726;-69
2022/04/12 14:40:18;;;;;;;2.47;2.00;;;;;;;;;;5042601;28;20194;-68
2022/04/12 14:42:48;;;;;;;3.83;2.03;;;;;;;;;;5059883;28;20213;-69
2022/04/12 14:45:15;;;;;;;2.07;1.67;;;;;;;;;;5056352;28;20205;-68
2022/04/12 14:47:42;;;;;;;3.57;1.97;;;;;;;;;;5061111;28;20198;-69
2022/04/12 14:50:09;;;;;;;1.63;1.53;;;;;;;;;;5057753;28;20616;-69
2022/04/12 14:52:37;;;;;;;2.17;1.80;;;;;;;;;;5057471;28;20224;-69
2022/04/12 14:55:05;;;;;;;2.07;1.83;;;;;;;;;;5060253;28;20207;-65
2022/04/12 14:57:35;;;;;;;2.50;1.80;;;;;;;;;;5060674;28;20193;-65
2022/04/12 15:00:04;;;;;;;3.07;1.40;;;;;;;;;;5063815;28;20198;-66